Time;durP1;ratioP1;P1;durP2;ratioP2;P2;SDS_P1;SDS_P2;PMS_P1;PMS_P2;Temp;Humidity;BMP_temperature;BMP_pressure;BME280_temperature;BME280_humidity;BME280_pressure;Samples;Min_cycle;Max_cycle;Signal;HPM_P1;HPM_P2
2023/01/19 10:13:00;;;;;;;26.30;16.50;;;1.90;99.90;;;;;;5086345;27;20691;-76
2023/01/19 10:15:37;;;;;;;16.83;15.50;;;3.00;99.90;;;;;;5086274;28;21231;-74
2023/01/19 10:18:15;;;;;;;15.10;14.10;;;2.90;99.90;;;;;;5086619;28;20439;-76
2023/01/19 10:20:46;;;;;;;14.00;13.20;;;2.80;99.90;;;;;;5086173;28;20491;-77
2023/01/19 10:23:25;;;;;;;15.37;14.17;;;2.60;99.90;;;;;;5086280;28;20451;-77
2023/01/19 10:25:52;;;;;;;15.47;14.37;;;2.20;99.90;;;;;;5086448;28;20503;-77
2023/01/19 10:28:25;;;;;;;13.63;12.70;;;2.20;99.90;;;;;;5086376;28;20454;-75
2023/01/19 10:30:53;;;;;;;13.73;12.67;;;2.30;99.90;;;;;;5086606;28;20478;-76
2023/01/19 10:33:20;;;;;;;13.80;12.90;;;2.30;99.90;;;;;;5086345;28;20450;-76
2023/01/19 10:35:47;;;;;;;15.50;14.03;;;2.40;99.90;;;;;;5085852;28;20454;-76
2023/01/19 10:38:18;;;;;;;14.07;13.17;;;2.50;99.90;;;;;;5085888;28;20737;-76
2023/01/19 10:40:53;;;;;;;12.17;11.47;;;2.50;99.90;;;;;;5085925;28;20524;-76
2023/01/19 10:43:40;;;;;;;14.40;13.00;;;2.70;99.90;;;;;;5086143;28;20452;-76
2023/01/19 10:46:17;;;;;;;14.47;12.97;;;2.70;99.90;;;;;;5086018;28;20478;-76
2023/01/19 10:48:47;;;;;;;18.10;16.03;;;2.80;99.90;;;;;;5085644;28;20659;-77
2023/01/19 10:51:14;;;;;;;14.67;13.47;;;2.90;99.90;;;;;;5085530;28;20815;-76
2023/01/19 10:53:43;;;;;;;13.47;12.67;;;2.90;99.90;;;;;;5085621;28;20446;-76
2023/01/19 10:56:17;;;;;;;14.17;13.03;;;2.90;99.90;;;;;;5085445;28;20461;-76
2023/01/19 10:58:45;;;;;;;14.30;13.33;;;3.00;99.90;;;;;;5085389;28;20508;-76
2023/01/19 11:01:17;;;;;;;13.63;12.73;;;3.30;99.90;;;;;;5085712;28;20446;-76
2023/01/19 11:03:44;;;;;;;13.33;12.13;;;3.40;99.90;;;;;;5085449;28;20853;-76
2023/01/19 11:06:25;;;;;;;14.50;13.40;;;3.60;99.90;;;;;;5085445;28;20474;-76
2023/01/19 11:08:53;;;;;;;14.43;13.53;;;3.70;99.90;;;;;;5085769;28;20797;-76
2023/01/19 11:11:23;;;;;;;15.23;13.90;;;3.70;99.90;;;;;;5085468;28;21001;-76
2023/01/19 11:14:09;;;;;;;14.93;13.60;;;3.60;99.90;;;;;;5071145;28;20473;-77
2023/01/19 11:16:38;;;;;;;14.60;13.40;;;3.50;99.90;;;;;;5071735;28;20447;-76
2023/01/19 11:19:15;;;;;;;12.80;12.00;;;3.40;99.90;;;;;;5071738;28;20511;-77
2023/01/19 11:21:42;;;;;;;15.10;14.00;;;3.30;99.90;;;;;;5071490;28;20445;-76
2023/01/19 11:24:12;;;;;;;15.07;13.77;;;3.20;99.90;;;;;;5071802;28;20458;-76
2023/01/19 11:26:42;;;;;;;14.47;13.23;;;3.10;99.90;;;;;;5071786;28;20455;-76
2023/01/19 11:29:17;;;;;;;14.57;13.30;;;3.10;99.90;;;;;;5071871;28;20500;-76
2023/01/19 11:31:44;;;;;;;13.40;12.60;;;3.10;99.90;;;;;;5074682;28;20481;-76
2023/01/19 11:34:31;;;;;;;13.23;12.23;;;3.20;99.90;;;;;;5075843;28;20951;-77
2023/01/19 11:36:59;;;;;;;12.30;11.67;;;3.40;99.90;;;;;;5078962;28;20482;-76
2023/01/19 11:39:28;;;;;;;13.00;12.17;;;3.50;99.90;;;;;;5078824;28;20458;-76
2023/01/19 11:41:58;;;;;;;12.10;11.00;;;3.50;99.90;;;;;;5079026;28;20454;-76
2023/01/19 11:44:30;;;;;;;13.63;12.83;;;3.50;99.90;;;;;;5078861;28;20505;-76
2023/01/19 11:46:59;;;;;;;15.43;14.33;;;3.70;99.90;;;;;;5076897;28;20474;-76
2023/01/19 11:49:36;;;;;;;12.90;12.10;;;3.80;99.90;;;;;;5071906;28;20451;-76
2023/01/19 11:52:07;;;;;;;12.60;11.80;;;3.90;99.90;;;;;;5070834;28;20540;-75
2023/01/19 11:54:40;;;;;;;12.33;11.47;;;3.90;99.90;;;;;;5071107;28;20458;-75
2023/01/19 11:57:14;;;;;;;14.00;13.10;;;3.90;99.90;;;;;;5071519;28;20455;-76
2023/01/19 11:59:43;;;;;;;14.47;12.03;;;3.90;99.90;;;;;;5070907;28;20461;-75
2023/01/19 12:02:20;;;;;;;11.70;11.00;;;4.00;99.90;;;;;;5070827;28;20443;-76
2023/01/19 12:04:48;;;;;;;12.93;12.13;;;4.00;99.90;;;;;;5070800;28;20522;-75
2023/01/19 12:07:21;;;;;;;13.63;12.63;;;4.20;99.90;;;;;;5070613;28;20452;-75
2023/01/19 12:09:52;;;;;;;13.00;12.10;;;4.40;99.90;;;;;;5071026;28;20681;-76
2023/01/19 12:12:26;;;;;;;13.90;13.07;;;4.70;99.90;;;;;;5070809;28;20548;-76
2023/01/19 12:15:00;;;;;;;12.73;11.93;;;4.70;99.90;;;;;;5071070;28;20458;-76
2023/01/19 12:17:29;;;;;;;14.30;13.30;;;4.70;99.90;;;;;;5070630;28;20874;-76
2023/01/19 12:20:03;;;;;;;12.83;12.13;;;4.70;99.90;;;;;;5070398;28;20450;-75
2023/01/19 12:22:38;;;;;;;13.33;12.63;;;4.70;99.90;;;;;;5070376;28;20447;-76
2023/01/19 12:25:15;;;;;;;13.60;12.70;;;4.90;99.90;;;;;;5069990;28;20787;-75
2023/01/19 12:27:44;;;;;;;12.60;11.83;;;4.80;99.90;;;;;;5070291;28;20447;-76
2023/01/19 12:30:19;;;;;;;12.43;11.80;;;5.00;99.90;;;;;;5070165;28;20494;-75
2023/01/19 12:32:45;;;;;;;13.87;13.00;;;5.10;99.90;;;;;;5070400;28;20482;-76
2023/01/19 12:35:49;;;;;;;12.00;11.30;;;4.90;99.90;;;;;;5070078;28;20454;-76
2023/01/19 12:38:47;;;;;;;12.77;11.97;;;4.80;99.90;;;;;;5069724;28;20457;-75
2023/01/19 12:41:23;;;;;;;12.30;11.50;;;4.70;99.90;;;;;;5007917;28;20484;-76
2023/01/19 12:44:26;;;;;;;13.40;12.50;;;4.40;99.90;;;;;;5059800;28;20532;-75
2023/01/19 12:47:02;;;;;;;13.10;12.37;;;4.20;99.90;;;;;;5070308;28;20462;-76
2023/01/19 12:49:32;;;;;;;14.10;13.23;;;4.20;99.90;;;;;;5069819;28;20478;-76
2023/01/19 12:52:18;;;;;;;12.60;11.60;;;4.10;99.90;;;;;;5069714;28;21024;-76
2023/01/19 12:54:53;;;;;;;13.00;12.23;;;4.00;99.90;;;;;;5069975;28;20654;-75
2023/01/19 12:57:25;;;;;;;13.87;13.00;;;4.10;99.90;;;;;;5070217;28;20952;-75
2023/01/19 12:59:57;;;;;;;12.80;12.00;;;4.00;99.90;;;;;;5069957;28;20450;-75
2023/01/19 13:02:53;;;;;;;13.37;12.30;;;3.90;99.90;;;;;;5069901;28;20829;-76
2023/01/19 13:05:24;;;;;;;13.07;12.20;;;4.00;99.90;;;;;;5070094;28;20467;-77
2023/01/19 13:08:14;;;;;;;14.30;13.10;;;3.90;99.90;;;;;;5070027;28;20458;-76
2023/01/19 13:10:56;;;;;;;13.30;12.50;;;3.80;99.90;;;;;;5069406;28;20592;-75
2023/01/19 13:13:24;;;;;;;14.00;13.03;;;3.70;99.90;;;;;;5069915;28;20450;-75
2023/01/19 13:15:51;;;;;;;15.07;14.07;;;3.60;99.90;;;;;;5069858;28;20969;-76
2023/01/19 13:18:21;;;;;;;14.33;13.33;;;3.60;99.90;;;;;;5069521;28;20447;-76
2023/01/19 13:20:56;;;;;;;14.70;13.90;;;3.60;99.90;;;;;;5069339;28;20482;-75
2023/01/19 13:23:25;;;;;;;14.23;12.97;;;3.50;99.90;;;;;;5069531;28;20458;-75
2023/01/19 13:26:03;;;;;;;13.70;12.77;;;3.60;99.90;;;;;;5069549;28;20459;-76
2023/01/19 13:28:40;;;;;;;13.63;12.93;;;3.50;99.90;;;;;;5069124;28;20481;-76
2023/01/19 13:31:08;;;;;;;14.73;13.53;;;3.50;99.90;;;;;;5069396;28;20453;-77
2023/01/19 13:33:50;;;;;;;14.17;12.80;;;3.60;99.90;;;;;;5069355;28;20479;-76
2023/01/19 13:36:23;;;;;;;14.73;13.40;;;3.70;99.90;;;;;;5068907;28;20458;-76
2023/01/19 13:38:51;;;;;;;15.30;14.40;;;3.60;99.90;;;;;;5069277;28;20554;-76
2023/01/19 13:41:21;;;;;;;15.80;14.60;;;3.60;99.90;;;;;;5069163;28;20560;-76
2023/01/19 13:43:50;;;;;;;15.57;14.13;;;3.50;99.90;;;;;;5068975;28;20466;-76
2023/01/19 13:46:18;;;;;;;13.70;12.90;;;3.60;99.90;;;;;;5069054;28;20462;-76
2023/01/19 13:48:55;;;;;;;15.67;14.53;;;3.60;99.90;;;;;;5069172;28;20459;-76
2023/01/19 13:51:22;;;;;;;15.67;14.33;;;3.50;99.90;;;;;;5069298;28;20532;-76
2023/01/19 13:53:56;;;;;;;16.10;14.40;;;3.50;99.90;;;;;;5069269;28;20981;-77
2023/01/19 13:56:24;;;;;;;14.87;13.83;;;3.70;99.90;;;;;;5069232;28;20477;-77
2023/01/19 13:59:09;;;;;;;15.07;13.93;;;3.70;99.90;;;;;;5069182;28;20455;-76
2023/01/19 14:01:36;;;;;;;14.10;13.30;;;3.80;99.90;;;;;;5069543;28;20805;-76
2023/01/19 14:04:05;;;;;;;16.20;15.20;;;3.80;99.90;;;;;;5069067;28;20450;-76
2023/01/19 14:06:38;;;;;;;15.97;14.87;;;3.70;99.90;;;;;;5068647;28;20561;-77
2023/01/19 14:09:15;;;;;;;16.60;15.37;;;3.60;99.90;;;;;;5069006;28;21015;-77
2023/01/19 14:11:42;;;;;;;14.17;13.17;;;3.50;99.90;;;;;;5068510;28;20526;-76
2023/01/19 14:14:22;;;;;;;14.87;13.63;;;3.70;99.90;;;;;;5069087;28;20852;-77
2023/01/19 14:16:49;;;;;;;14.80;13.80;;;3.60;99.90;;;;;;5069063;28;20442;-76
2023/01/19 14:19:17;;;;;;;14.80;13.67;;;3.40;99.90;;;;;;5068702;28;20479;-76
2023/01/19 14:21:44;;;;;;;15.90;14.70;;;3.40;99.90;;;;;;5068507;28;21230;-76
2023/01/19 14:24:16;;;;;;;17.20;16.00;;;3.40;99.90;;;;;;5068761;28;20457;-76
2023/01/19 14:26:50;;;;;;;17.47;16.20;;;3.40;99.90;;;;;;5068883;28;20807;-75
2023/01/19 14:29:27;;;;;;;16.30;15.20;;;3.50;99.90;;;;;;5068492;28;20447;-76
2023/01/19 14:32:10;;;;;;;15.70;14.70;;;3.50;99.90;;;;;;5068819;28;20612;-76
2023/01/19 14:34:40;;;;;;;16.43;15.33;;;3.50;99.90;;;;;;5068977;28;20458;-77
2023/01/19 14:37:16;;;;;;;16.87;15.70;;;3.30;99.90;;;;;;5068920;28;20451;-76
2023/01/19 14:39:45;;;;;;;15.93;14.73;;;3.20;99.90;;;;;;5068494;28;20513;-75
2023/01/19 14:42:17;;;;;;;15.90;14.73;;;3.20;99.90;;;;;;5068575;28;20439;-76
2023/01/19 14:44:47;;;;;;;16.20;15.00;;;3.30;99.90;;;;;;5068612;28;20455;-76
2023/01/19 14:47:28;;;;;;;16.37;15.37;;;3.20;99.90;;;;;;5069158;28;21114;-76
2023/01/19 14:50:00;;;;;;;14.77;13.77;;;3.20;99.90;;;;;;5072359;28;20462;-77
2023/01/19 14:52:31;;;;;;;17.23;15.93;;;3.20;99.90;;;;;;5072005;28;20487;-76
2023/01/19 14:54:59;;;;;;;16.47;15.47;;;3.20;99.90;;;;;;5072234;28;20447;-76
2023/01/19 14:57:26;;;;;;;16.43;15.33;;;3.20;99.90;;;;;;5072190;28;20474;-76
2023/01/19 14:59:54;;;;;;;17.00;15.80;;;3.00;99.90;;;;;;5072537;28;20455;-76
2023/01/19 15:02:21;;;;;;;18.33;16.93;;;3.10;99.90;;;;;;5072612;28;20453;-76
2023/01/19 15:04:48;;;;;;;18.77;17.47;;;3.10;99.90;;;;;;5087906;28;20426;-76
2023/01/19 15:07:18;;;;;;;17.60;16.53;;;3.10;99.90;;;;;;5092215;28;20443;-76
2023/01/19 15:09:46;;;;;;;17.93;16.30;;;3.20;99.90;;;;;;5090168;28;20447;-77
2023/01/19 15:12:15;;;;;;;16.27;15.37;;;3.20;99.90;;;;;;5085088;28;20921;-77
2023/01/19 15:14:42;;;;;;;15.77;14.87;;;3.30;99.90;;;;;;5082958;28;20443;-76
2023/01/19 15:17:16;;;;;;;16.87;15.67;;;3.30;99.90;;;;;;5073362;28;20961;-76
2023/01/19 15:19:43;;;;;;;16.80;15.40;;;3.40;99.90;;;;;;5072141;28;20451;-76
2023/01/19 15:22:12;;;;;;;17.77;16.03;;;3.20;99.90;;;;;;5071754;28;20941;-76
2023/01/19 15:24:40;;;;;;;17.70;16.50;;;3.10;99.90;;;;;;5071859;28;20858;-75
2023/01/19 15:27:10;;;;;;;19.17;17.77;;;3.20;99.90;;;;;;5071823;28;20538;-75
2023/01/19 15:29:39;;;;;;;17.83;16.63;;;3.20;99.90;;;;;;5071593;28;20459;-76
2023/01/19 15:32:06;;;;;;;15.77;14.77;;;3.20;99.90;;;;;;5071506;28;20483;-75
2023/01/19 15:34:33;;;;;;;14.57;13.67;;;3.20;99.90;;;;;;5071200;28;20827;-75
2023/01/19 15:36:59;;;;;;;16.70;15.50;;;3.20;99.90;;;;;;5071268;28;20454;-75
2023/01/19 15:39:26;;;;;;;17.00;15.90;;;3.30;99.90;;;;;;5071204;28;20459;-75
2023/01/19 15:41:54;;;;;;;16.07;15.00;;;3.30;99.90;;;;;;5071593;28;20966;-75
2023/01/19 15:44:21;;;;;;;15.77;14.60;;;3.40;99.90;;;;;;5071608;28;20451;-76
2023/01/19 15:46:47;;;;;;;16.40;15.30;;;3.40;99.90;;;;;;5071106;28;20960;-76
2023/01/19 15:49:14;;;;;;;16.43;15.07;;;3.40;99.90;;;;;;5073694;28;20581;-76
2023/01/19 15:51:41;;;;;;;16.30;15.10;;;3.30;99.90;;;;;;5074883;28;20451;-76
2023/01/19 15:54:12;;;;;;;15.60;14.50;;;3.30;99.90;;;;;;5072932;28;20447;-75
2023/01/19 15:56:40;;;;;;;16.40;15.20;;;3.20;99.90;;;;;;5073645;28;20447;-75
2023/01/19 15:59:08;;;;;;;18.30;16.80;;;3.00;99.90;;;;;;5071805;28;20514;-76
2023/01/19 16:01:35;;;;;;;18.03;16.53;;;2.90;99.90;;;;;;5071388;28;20443;-75
2023/01/19 16:04:04;;;;;;;15.90;14.80;;;2.70;99.90;;;;;;5070961;28;20462;-77
2023/01/19 16:06:31;;;;;;;16.27;15.17;;;2.60;99.90;;;;;;5070528;28;20471;-77
2023/01/19 16:09:00;;;;;;;15.63;14.30;;;2.60;99.90;;;;;;5070920;28;20584;-77
2023/01/19 16:11:30;;;;;;;15.90;14.80;;;2.60;99.90;;;;;;5070540;28;20487;-77
2023/01/19 16:13:57;;;;;;;18.03;16.53;;;2.60;99.90;;;;;;5070579;28;20866;-77
2023/01/19 16:16:26;;;;;;;17.20;16.00;;;2.60;99.90;;;;;;5070548;28;20502;-76
2023/01/19 16:18:53;;;;;;;18.90;17.53;;;2.60;99.90;;;;;;5070612;28;20447;-76
2023/01/19 16:21:20;;;;;;;18.03;16.63;;;2.60;99.90;;;;;;5070529;28;20455;-75
2023/01/19 16:23:46;;;;;;;18.03;16.73;;;2.60;99.90;;;;;;5070493;28;20466;-75
2023/01/19 16:26:26;;;;;;;16.90;15.80;;;2.50;99.90;;;;;;5070283;28;20447;-75
2023/01/19 16:28:52;;;;;;;16.70;15.50;;;2.50;99.90;;;;;;5070442;28;20450;-76
2023/01/19 16:31:19;;;;;;;16.10;14.90;;;2.50;99.90;;;;;;5070229;28;20439;-75
2023/01/19 16:33:47;;;;;;;20.00;17.93;;;2.50;99.90;;;;;;5070126;28;20502;-77
2023/01/19 16:36:22;;;;;;;17.63;16.40;;;2.50;99.90;;;;;;5069859;28;20771;-76
2023/01/19 16:38:49;;;;;;;18.77;17.20;;;2.50;99.90;;;;;;5069939;28;20458;-75
2023/01/19 16:41:16;;;;;;;19.07;17.67;;;2.50;99.90;;;;;;5069621;28;20468;-76
2023/01/19 16:43:43;;;;;;;19.67;18.27;;;2.60;99.90;;;;;;5069829;28;20519;-75
2023/01/19 16:46:18;;;;;;;20.10;18.60;;;2.60;99.90;;;;;;5069732;28;20455;-75
2023/01/19 16:48:46;;;;;;;20.67;18.87;;;2.50;99.90;;;;;;5069841;28;20447;-74
2023/01/19 16:51:13;;;;;;;19.40;18.00;;;2.50;99.90;;;;;;5069865;28;20744;-75
2023/01/19 16:53:40;;;;;;;20.93;19.37;;;2.40;99.90;;;;;;5069791;28;20483;-75
2023/01/19 16:56:08;;;;;;;21.40;19.40;;;2.40;99.90;;;;;;5070153;28;20459;-78
2023/01/19 16:58:37;;;;;;;20.07;18.57;;;2.40;99.90;;;;;;5069886;28;20451;-76
2023/01/19 17:01:07;;;;;;;19.57;17.97;;;2.40;99.90;;;;;;5069783;28;21042;-76
2023/01/19 17:03:34;;;;;;;18.93;17.43;;;2.40;99.90;;;;;;5069990;28;20926;-77
2023/01/19 17:06:02;;;;;;;22.43;18.57;;;2.40;99.90;;;;;;5069794;28;20478;-75
2023/01/19 17:08:28;;;;;;;20.03;18.43;;;2.40;99.90;;;;;;5069381;28;20997;-76
2023/01/19 17:10:55;;;;;;;20.40;18.63;;;2.50;99.90;;;;;;5068832;28;20487;-76
2023/01/19 17:13:22;;;;;;;20.77;18.90;;;2.50;99.90;;;;;;5069921;28;20528;-76
2023/01/19 17:15:49;;;;;;;19.83;18.23;;;2.60;99.90;;;;;;5069697;28;20447;-76
2023/01/19 17:18:16;;;;;;;20.53;18.40;;;2.50;99.90;;;;;;5069371;28;20454;-77
2023/01/19 17:20:42;;;;;;;17.50;16.20;;;2.40;99.90;;;;;;5069433;28;20998;-76
2023/01/19 17:23:10;;;;;;;18.70;17.30;;;2.40;99.90;;;;;;5069481;28;20439;-76
2023/01/19 17:25:37;;;;;;;21.03;19.10;;;2.30;99.90;;;;;;5069832;28;20456;-77
2023/01/19 17:28:04;;;;;;;19.77;17.83;;;2.20;99.90;;;;;;5069649;28;20458;-76
2023/01/19 17:30:31;;;;;;;20.40;18.40;;;2.20;99.90;;;;;;5069522;28;20459;-76
2023/01/19 17:32:57;;;;;;;18.67;17.40;;;2.20;99.90;;;;;;5069249;28;20759;-76
2023/01/19 17:35:24;;;;;;;19.53;17.80;;;2.20;99.90;;;;;;5069395;28;20451;-76
2023/01/19 17:37:53;;;;;;;18.77;17.50;;;2.40;99.90;;;;;;5069525;28;20455;-75
2023/01/19 17:40:24;;;;;;;19.37;17.97;;;2.40;99.90;;;;;;5069569;28;20455;-77
2023/01/19 17:42:51;;;;;;;19.73;18.23;;;2.40;99.90;;;;;;5069543;28;20973;-76
2023/01/19 17:45:18;;;;;;;20.50;18.67;;;2.50;99.90;;;;;;5069291;28;20981;-76
2023/01/19 17:47:47;;;;;;;19.63;18.13;;;2.50;99.90;;;;;;5069302;28;20851;-76
2023/01/19 17:50:14;;;;;;;21.70;19.87;;;2.50;99.90;;;;;;5069135;28;20546;-76
2023/01/19 17:52:41;;;;;;;22.10;20.27;;;2.40;99.90;;;;;;5068967;28;20515;-75
2023/01/19 17:55:08;;;;;;;21.37;19.47;;;2.40;99.90;;;;;;5069472;28;20451;-75
2023/01/19 17:57:36;;;;;;;20.17;18.63;;;2.40;99.90;;;;;;5069340;28;20443;-76
